sensor_id;sensor_type;location;lat;lon;timestamp;temperature;humidity
2459;DHT22;1241;50.920;6.936;2022-09-09T00:00:32;18.90;99.90
2459;DHT22;1241;50.920;6.936;2022-09-09T00:03:17;18.80;99.90
2459;DHT22;1241;50.920;6.936;2022-09-09T00:06:08;18.80;99.90
2459;DHT22;1241;50.920;6.936;2022-09-09T00:08:48;18.80;99.90
2459;DHT22;1241;50.920;6.936;2022-09-09T00:11:21;18.70;99.90
2459;DHT22;1241;50.920;6.936;2022-09-09T00:13:52;18.70;99.90
2459;DHT22;1241;50.920;6.936;2022-09-09T00:16:22;18.50;99.90
2459;DHT22;1241;50.920;6.936;2022-09-09T00:19:25;18.50;99.90
2459;DHT22;1241;50.920;6.936;2022-09-09T00:24:44;18.50;99.90
2459;DHT22;1241;50.920;6.936;2022-09-09T00:27:41;18.40;99.90
2459;DHT22;1241;50.920;6.936;2022-09-09T00:32:39;18.40;99.90
2459;DHT22;1241;50.920;6.936;2022-09-09T00:37:52;18.40;99.90
2459;DHT22;1241;50.920;6.936;2022-09-09T00:43:37;18.40;99.90
2459;DHT22;1241;50.920;6.936;2022-09-09T00:46:21;18.40;99.90
2459;DHT22;1241;50.920;6.936;2022-09-09T00:59:47;18.30;99.90
2459;DHT22;1241;50.920;6.936;2022-09-09T01:04:47;18.20;99.90
2459;DHT22;1241;50.920;6.936;2022-09-09T01:07:17;18.10;99.90
2459;DHT22;1241;50.920;6.936;2022-09-09T01:09:59;18.10;99.90
2459;DHT22;1241;50.920;6.936;2022-09-09T01:12:43;18.00;99.90
2459;DHT22;1241;50.920;6.936;2022-09-09T01:15:21;18.10;99.90
2459;DHT22;1241;50.920;6.936;2022-09-09T01:18:06;18.10;99.90
2459;DHT22;1241;50.920;6.936;2022-09-09T01:26:37;18.10;99.90
2459;DHT22;1241;50.920;6.936;2022-09-09T01:29:11;17.90;99.90
2459;DHT22;1241;50.920;6.936;2022-09-09T01:34:31;17.80;99.90
2459;DHT22;1241;50.920;6.936;2022-09-09T01:37:03;17.80;99.90
2459;DHT22;1241;50.920;6.936;2022-09-09T01:39:31;17.70;99.90
2459;DHT22;1241;50.920;6.936;2022-09-09T01:42:07;17.70;99.90
2459;DHT22;1241;50.920;6.936;2022-09-09T01:44:34;17.60;99.90
2459;DHT22;1241;50.920;6.936;2022-09-09T01:47:01;17.50;99.90
2459;DHT22;1241;50.920;6.936;2022-09-09T01:49:27;17.40;99.90
2459;DHT22;1241;50.920;6.936;2022-09-09T01:51:56;17.40;99.90
2459;DHT22;1241;50.920;6.936;2022-09-09T01:54:31;17.30;99.90
2459;DHT22;1241;50.920;6.936;2022-09-09T01:57:22;17.50;99.90
2459;DHT22;1241;50.920;6.936;2022-09-09T02:00:07;17.50;99.90
2459;DHT22;1241;50.920;6.936;2022-09-09T02:03:05;17.60;99.90
2459;DHT22;1241;50.920;6.936;2022-09-09T02:05:44;17.70;99.90
2459;DHT22;1241;50.920;6.936;2022-09-09T02:08:26;17.80;99.90
2459;DHT22;1241;50.920;6.936;2022-09-09T02:11:16;17.90;99.90
2459;DHT22;1241;50.920;6.936;2022-09-09T02:14:15;17.90;99.90
2459;DHT22;1241;50.920;6.936;2022-09-09T02:16:48;17.90;99.90
2459;DHT22;1241;50.920;6.936;2022-09-09T02:19:23;17.90;99.90
2459;DHT22;1241;50.920;6.936;2022-09-09T02:22:06;18.00;99.90
2459;DHT22;1241;50.920;6.936;2022-09-09T02:24:37;18.00;99.90
2459;DHT22;1241;50.920;6.936;2022-09-09T02:27:18;18.10;99.90
2459;DHT22;1241;50.920;6.936;2022-09-09T02:29:45;18.00;99.90
2459;DHT22;1241;50.920;6.936;2022-09-09T02:32:15;18.00;99.90
2459;DHT22;1241;50.920;6.936;2022-09-09T02:34:47;18.10;99.90
2459;DHT22;1241;50.920;6.936;2022-09-09T02:37:18;18.10;99.90
2459;DHT22;1241;50.920;6.936;2022-09-09T02:39:48;18.20;99.90
2459;DHT22;1241;50.920;6.936;2022-09-09T02:42:17;18.10;99.90
2459;DHT22;1241;50.920;6.936;2022-09-09T02:44:45;18.10;99.90
2459;DHT22;1241;50.920;6.936;2022-09-09T02:47:39;18.00;99.90
2459;DHT22;1241;50.920;6.936;2022-09-09T02:50:19;18.10;99.90
2459;DHT22;1241;50.920;6.936;2022-09-09T02:55:47;18.00;99.90
2459;DHT22;1241;50.920;6.936;2022-09-09T02:58:19;18.00;99.90
2459;DHT22;1241;50.920;6.936;2022-09-09T03:00:53;18.00;99.90
2459;DHT22;1241;50.920;6.936;2022-09-09T03:03:20;18.00;99.90
2459;DHT22;1241;50.920;6.936;2022-09-09T03:05:49;18.10;99.90
2459;DHT22;1241;50.920;6.936;2022-09-09T03:08:15;18.10;99.90
2459;DHT22;1241;50.920;6.936;2022-09-09T03:10:42;18.10;99.90
2459;DHT22;1241;50.920;6.936;2022-09-09T03:13:09;18.10;99.90
2459;DHT22;1241;50.920;6.936;2022-09-09T03:15:38;18.10;99.90
2459;DHT22;1241;50.920;6.936;2022-09-09T03:18:05;18.10;99.90
2459;DHT22;1241;50.920;6.936;2022-09-09T03:20:32;18.10;99.90
2459;DHT22;1241;50.920;6.936;2022-09-09T03:22:59;18.20;99.90
2459;DHT22;1241;50.920;6.936;2022-09-09T03:25:25;18.20;99.90
2459;DHT22;1241;50.920;6.936;2022-09-09T03:27:54;18.20;99.90
2459;DHT22;1241;50.920;6.936;2022-09-09T03:30:22;18.20;99.90
2459;DHT22;1241;50.920;6.936;2022-09-09T03:32:48;18.20;99.90
2459;DHT22;1241;50.920;6.936;2022-09-09T03:35:14;18.20;99.90
2459;DHT22;1241;50.920;6.936;2022-09-09T03:37:41;18.20;99.90
2459;DHT22;1241;50.920;6.936;2022-09-09T03:40:08;18.20;99.90
2459;DHT22;1241;50.920;6.936;2022-09-09T03:42:36;18.20;99.90
2459;DHT22;1241;50.920;6.936;2022-09-09T03:45:04;18.30;99.90
2459;DHT22;1241;50.920;6.936;2022-09-09T03:47:30;18.30;99.90
2459;DHT22;1241;50.920;6.936;2022-09-09T03:50:04;18.20;99.90
2459;DHT22;1241;50.920;6.936;2022-09-09T03:52:38;18.20;99.90
2459;DHT22;1241;50.920;6.936;2022-09-09T03:55:08;18.20;99.90
2459;DHT22;1241;50.920;6.936;2022-09-09T03:57:34;18.20;99.90
2459;DHT22;1241;50.920;6.936;2022-09-09T04:00:04;18.30;99.90
2459;DHT22;1241;50.920;6.936;2022-09-09T04:02:41;18.20;99.90
2459;DHT22;1241;50.920;6.936;2022-09-09T04:05:10;18.20;99.90
2459;DHT22;1241;50.920;6.936;2022-09-09T04:07:38;18.10;99.90
2459;DHT22;1241;50.920;6.936;2022-09-09T04:10:04;18.20;99.90
2459;DHT22;1241;50.920;6.936;2022-09-09T04:12:30;18.20;99.90
2459;DHT22;1241;50.920;6.936;2022-09-09T04:14:57;18.10;99.90
2459;DHT22;1241;50.920;6.936;2022-09-09T04:17:22;18.00;99.90
2459;DHT22;1241;50.920;6.936;2022-09-09T04:19:48;17.90;99.90
2459;DHT22;1241;50.920;6.936;2022-09-09T04:22:14;17.90;99.90
2459;DHT22;1241;50.920;6.936;2022-09-09T04:24:40;17.80;99.90
2459;DHT22;1241;50.920;6.936;2022-09-09T04:27:06;17.90;99.90
2459;DHT22;1241;50.920;6.936;2022-09-09T04:29:34;17.90;99.90
2459;DHT22;1241;50.920;6.936;2022-09-09T04:32:00;17.90;99.90
2459;DHT22;1241;50.920;6.936;2022-09-09T04:34:26;18.00;99.90
2459;DHT22;1241;50.920;6.936;2022-09-09T04:36:53;18.00;99.90
2459;DHT22;1241;50.920;6.936;2022-09-09T04:39:20;18.10;99.90
2459;DHT22;1241;50.920;6.936;2022-09-09T04:41:45;18.10;99.90
2459;DHT22;1241;50.920;6.936;2022-09-09T04:44:12;18.20;99.90
2459;DHT22;1241;50.920;6.936;2022-09-09T04:46:38;18.10;99.90
2459;DHT22;1241;50.920;6.936;2022-09-09T04:49:04;18.20;99.90
2459;DHT22;1241;50.920;6.936;2022-09-09T04:51:32;18.20;99.90
2459;DHT22;1241;50.920;6.936;2022-09-09T04:53:58;18.20;99.90
2459;DHT22;1241;50.920;6.936;2022-09-09T04:56:24;18.20;99.90
2459;DHT22;1241;50.920;6.936;2022-09-09T04:58:55;18.20;99.90
2459;DHT22;1241;50.920;6.936;2022-09-09T05:01:25;18.20;99.90
2459;DHT22;1241;50.920;6.936;2022-09-09T05:03:58;18.20;99.90
2459;DHT22;1241;50.920;6.936;2022-09-09T05:06:24;18.20;99.90
2459;DHT22;1241;50.920;6.936;2022-09-09T05:08:54;18.20;99.90
2459;DHT22;1241;50.920;6.936;2022-09-09T05:11:29;18.20;99.90
2459;DHT22;1241;50.920;6.936;2022-09-09T05:14:02;18.20;99.90
2459;DHT22;1241;50.920;6.936;2022-09-09T05:16:30;18.10;99.90
2459;DHT22;1241;50.920;6.936;2022-09-09T05:18:57;18.20;99.90
2459;DHT22;1241;50.920;6.936;2022-09-09T05:21:24;18.20;99.90
2459;DHT22;1241;50.920;6.936;2022-09-09T05:23:54;18.20;99.90
2459;DHT22;1241;50.920;6.936;2022-09-09T05:26:21;18.20;99.90
2459;DHT22;1241;50.920;6.936;2022-09-09T05:28:49;18.10;99.90
2459;DHT22;1241;50.920;6.936;2022-09-09T05:31:16;18.20;99.90
2459;DHT22;1241;50.920;6.936;2022-09-09T05:33:45;18.20;99.90
2459;DHT22;1241;50.920;6.936;2022-09-09T05:36:16;18.20;99.90
2459;DHT22;1241;50.920;6.936;2022-09-09T05:38:42;18.00;99.90
2459;DHT22;1241;50.920;6.936;2022-09-09T05:41:09;18.10;99.90
2459;DHT22;1241;50.920;6.936;2022-09-09T05:43:37;18.10;99.90
2459;DHT22;1241;50.920;6.936;2022-09-09T05:48:34;18.10;99.90
2459;DHT22;1241;50.920;6.936;2022-09-09T05:51:01;18.20;99.90
2459;DHT22;1241;50.920;6.936;2022-09-09T05:53:29;18.10;99.90
2459;DHT22;1241;50.920;6.936;2022-09-09T05:56:10;18.20;99.90
2459;DHT22;1241;50.920;6.936;2022-09-09T05:58:37;18.20;99.90
2459;DHT22;1241;50.920;6.936;2022-09-09T06:01:08;18.20;99.90
2459;DHT22;1241;50.920;6.936;2022-09-09T06:03:38;18.40;99.90
2459;DHT22;1241;50.920;6.936;2022-09-09T06:06:06;18.40;99.90
2459;DHT22;1241;50.920;6.936;2022-09-09T06:08:38;18.50;99.90
2459;DHT22;1241;50.920;6.936;2022-09-09T06:13:32;18.70;99.90
2459;DHT22;1241;50.920;6.936;2022-09-09T06:15:58;18.70;99.90
2459;DHT22;1241;50.920;6.936;2022-09-09T06:18:25;18.80;99.90
2459;DHT22;1241;50.920;6.936;2022-09-09T06:21:04;18.80;99.90
2459;DHT22;1241;50.920;6.936;2022-09-09T06:23:31;18.70;99.90
2459;DHT22;1241;50.920;6.936;2022-09-09T06:26:18;18.70;99.90
2459;DHT22;1241;50.920;6.936;2022-09-09T06:28:46;18.70;99.90
2459;DHT22;1241;50.920;6.936;2022-09-09T06:31:14;18.70;99.90
2459;DHT22;1241;50.920;6.936;2022-09-09T06:33:43;18.70;99.90
2459;DHT22;1241;50.920;6.936;2022-09-09T06:36:14;18.80;99.90
2459;DHT22;1241;50.920;6.936;2022-09-09T06:38:45;18.90;99.90
2459;DHT22;1241;50.920;6.936;2022-09-09T06:41:14;19.10;99.90
2459;DHT22;1241;50.920;6.936;2022-09-09T06:43:42;19.20;99.90
2459;DHT22;1241;50.920;6.936;2022-09-09T06:48:42;19.60;99.90
2459;DHT22;1241;50.920;6.936;2022-09-09T06:53:38;19.50;99.90
2459;DHT22;1241;50.920;6.936;2022-09-09T06:58:37;20.30;99.90
2459;DHT22;1241;50.920;6.936;2022-09-09T07:01:04;20.80;99.90
2459;DHT22;1241;50.920;6.936;2022-09-09T07:03:34;21.20;99.90
2459;DHT22;1241;50.920;6.936;2022-09-09T07:06:01;21.60;99.90
2459;DHT22;1241;50.920;6.936;2022-09-09T07:08:27;21.90;99.90
2459;DHT22;1241;50.920;6.936;2022-09-09T07:10:54;22.20;99.90
2459;DHT22;1241;50.920;6.936;2022-09-09T07:13:29;22.30;99.90
2459;DHT22;1241;50.920;6.936;2022-09-09T07:15:55;22.40;99.90
2459;DHT22;1241;50.920;6.936;2022-09-09T07:18:21;22.60;99.90
2459;DHT22;1241;50.920;6.936;2022-09-09T07:20:53;22.80;99.90
2459;DHT22;1241;50.920;6.936;2022-09-09T07:23:20;22.80;99.90
2459;DHT22;1241;50.920;6.936;2022-09-09T07:25:46;22.90;99.90
2459;DHT22;1241;50.920;6.936;2022-09-09T07:28:15;23.00;99.90
2459;DHT22;1241;50.920;6.936;2022-09-09T07:30:40;23.00;99.90
2459;DHT22;1241;50.920;6.936;2022-09-09T07:33:06;23.00;99.90
2459;DHT22;1241;50.920;6.936;2022-09-09T07:35:32;22.90;99.90
2459;DHT22;1241;50.920;6.936;2022-09-09T07:38:00;22.90;99.90
2459;DHT22;1241;50.920;6.936;2022-09-09T07:40:26;22.70;99.90
2459;DHT22;1241;50.920;6.936;2022-09-09T07:42:52;22.80;99.90
2459;DHT22;1241;50.920;6.936;2022-09-09T07:45:19;22.70;99.90
2459;DHT22;1241;50.920;6.936;2022-09-09T07:47:45;22.50;99.90
2459;DHT22;1241;50.920;6.936;2022-09-09T07:50:10;22.50;99.90
2459;DHT22;1241;50.920;6.936;2022-09-09T07:52:37;22.50;99.90
2459;DHT22;1241;50.920;6.936;2022-09-09T07:55:05;22.40;99.90
2459;DHT22;1241;50.920;6.936;2022-09-09T07:57:32;22.50;99.90
2459;DHT22;1241;50.920;6.936;2022-09-09T07:59:58;22.50;99.90
2459;DHT22;1241;50.920;6.936;2022-09-09T08:02:24;22.40;99.90
2459;DHT22;1241;50.920;6.936;2022-09-09T08:04:51;22.30;99.90
2459;DHT22;1241;50.920;6.936;2022-09-09T08:07:18;22.30;99.90
2459;DHT22;1241;50.920;6.936;2022-09-09T08:09:50;22.30;99.90
2459;DHT22;1241;50.920;6.936;2022-09-09T08:12:20;22.20;99.90
2459;DHT22;1241;50.920;6.936;2022-09-09T08:14:46;22.00;99.90
2459;DHT22;1241;50.920;6.936;2022-09-09T08:17:11;21.90;99.90
2459;DHT22;1241;50.920;6.936;2022-09-09T08:19:38;21.80;99.90
2459;DHT22;1241;50.920;6.936;2022-09-09T08:22:09;21.70;99.90
2459;DHT22;1241;50.920;6.936;2022-09-09T08:24:37;21.50;99.90
2459;DHT22;1241;50.920;6.936;2022-09-09T08:27:03;21.40;99.90
2459;DHT22;1241;50.920;6.936;2022-09-09T08:29:28;21.50;99.90
2459;DHT22;1241;50.920;6.936;2022-09-09T08:31:56;21.70;99.90
2459;DHT22;1241;50.920;6.936;2022-09-09T08:34:24;21.90;99.90
2459;DHT22;1241;50.920;6.936;2022-09-09T08:36:52;22.10;99.90
2459;DHT22;1241;50.920;6.936;2022-09-09T08:39:23;22.20;99.90
2459;DHT22;1241;50.920;6.936;2022-09-09T08:52:14;22.80;99.90
2459;DHT22;1241;50.920;6.936;2022-09-09T08:54:41;22.60;99.90
2459;DHT22;1241;50.920;6.936;2022-09-09T08:57:13;22.50;99.90
2459;DHT22;1241;50.920;6.936;2022-09-09T08:59:40;22.30;99.90
2459;DHT22;1241;50.920;6.936;2022-09-09T09:05:04;22.40;99.90
2459;DHT22;1241;50.920;6.936;2022-09-09T09:07:55;22.50;99.90
2459;DHT22;1241;50.920;6.936;2022-09-09T09:12:56;22.60;99.90
2459;DHT22;1241;50.920;6.936;2022-09-09T09:15:31;22.70;99.90
2459;DHT22;1241;50.920;6.936;2022-09-09T09:18:02;22.90;99.90
2459;DHT22;1241;50.920;6.936;2022-09-09T09:23:43;23.20;99.90
2459;DHT22;1241;50.920;6.936;2022-09-09T09:26:11;23.30;99.90
2459;DHT22;1241;50.920;6.936;2022-09-09T09:28:39;23.00;99.90
2459;DHT22;1241;50.920;6.936;2022-09-09T09:31:12;22.80;99.90
2459;DHT22;1241;50.920;6.936;2022-09-09T09:33:49;22.70;99.90
2459;DHT22;1241;50.920;6.936;2022-09-09T09:36:16;22.40;99.90
2459;DHT22;1241;50.920;6.936;2022-09-09T09:39:00;22.20;99.90
2459;DHT22;1241;50.920;6.936;2022-09-09T09:41:35;22.20;99.90
2459;DHT22;1241;50.920;6.936;2022-09-09T09:44:03;22.40;99.90
2459;DHT22;1241;50.920;6.936;2022-09-09T09:46:30;22.80;99.90
2459;DHT22;1241;50.920;6.936;2022-09-09T09:49:09;22.90;99.90
2459;DHT22;1241;50.920;6.936;2022-09-09T09:51:37;22.90;99.90
2459;DHT22;1241;50.920;6.936;2022-09-09T09:54:26;23.00;99.90
2459;DHT22;1241;50.920;6.936;2022-09-09T09:56:56;23.00;99.90
2459;DHT22;1241;50.920;6.936;2022-09-09T09:59:34;23.00;99.90
2459;DHT22;1241;50.920;6.936;2022-09-09T10:05:05;23.30;99.90
2459;DHT22;1241;50.920;6.936;2022-09-09T10:07:34;23.60;99.90
2459;DHT22;1241;50.920;6.936;2022-09-09T10:10:00;23.60;99.90
2459;DHT22;1241;50.920;6.936;2022-09-09T10:12:48;23.50;99.90
2459;DHT22;1241;50.920;6.936;2022-09-09T10:15:31;23.40;99.90
2459;DHT22;1241;50.920;6.936;2022-09-09T10:18:24;23.40;99.90
2459;DHT22;1241;50.920;6.936;2022-09-09T10:26:52;23.10;99.90
2459;DHT22;1241;50.920;6.936;2022-09-09T10:35:26;22.30;99.90
2459;DHT22;1241;50.920;6.936;2022-09-09T10:42:46;22.80;99.90
2459;DHT22;1241;50.920;6.936;2022-09-09T10:45:23;22.80;99.90
2459;DHT22;1241;50.920;6.936;2022-09-09T10:48:24;23.20;99.90
2459;DHT22;1241;50.920;6.936;2022-09-09T10:54:16;23.40;99.90
2459;DHT22;1241;50.920;6.936;2022-09-09T10:56:52;23.50;99.90
2459;DHT22;1241;50.920;6.936;2022-09-09T10:59:28;23.10;99.90
2459;DHT22;1241;50.920;6.936;2022-09-09T11:02:02;22.90;99.90
2459;DHT22;1241;50.920;6.936;2022-09-09T11:04:40;22.80;99.90
2459;DHT22;1241;50.920;6.936;2022-09-09T11:07:10;22.80;99.90
2459;DHT22;1241;50.920;6.936;2022-09-09T11:09:42;22.90;99.90
2459;DHT22;1241;50.920;6.936;2022-09-09T11:12:15;23.00;99.90
2459;DHT22;1241;50.920;6.936;2022-09-09T11:14:47;22.90;99.90
2459;DHT22;1241;50.920;6.936;2022-09-09T11:18:05;23.20;99.90
2459;DHT22;1241;50.920;6.936;2022-09-09T11:20:13;23.30;99.90
2459;DHT22;1241;50.920;6.936;2022-09-09T11:22:53;23.40;99.90
2459;DHT22;1241;50.920;6.936;2022-09-09T11:25:28;23.50;99.90
2459;DHT22;1241;50.920;6.936;2022-09-09T11:42:07;23.70;99.90
2459;DHT22;1241;50.920;6.936;2022-09-09T11:44:33;23.90;99.90
2459;DHT22;1241;50.920;6.936;2022-09-09T11:46:59;23.60;99.90
2459;DHT22;1241;50.920;6.936;2022-09-09T11:49:42;23.60;99.90
2459;DHT22;1241;50.920;6.936;2022-09-09T11:52:22;23.90;99.90
2459;DHT22;1241;50.920;6.936;2022-09-09T11:54:49;24.10;99.90
2459;DHT22;1241;50.920;6.936;2022-09-09T11:57:36;24.10;99.90
2459;DHT22;1241;50.920;6.936;2022-09-09T12:00:03;24.10;99.90
2459;DHT22;1241;50.920;6.936;2022-09-09T12:02:48;24.10;99.90
2459;DHT22;1241;50.920;6.936;2022-09-09T12:05:15;23.80;99.90
2459;DHT22;1241;50.920;6.936;2022-09-09T12:07:49;23.70;99.90
2459;DHT22;1241;50.920;6.936;2022-09-09T12:10:36;23.40;99.90
2459;DHT22;1241;50.920;6.936;2022-09-09T12:13:22;23.10;99.90
2459;DHT22;1241;50.920;6.936;2022-09-09T12:15:53;22.90;99.90
2459;DHT22;1241;50.920;6.936;2022-09-09T12:18:45;22.60;99.90
2459;DHT22;1241;50.920;6.936;2022-09-09T12:21:44;22.60;99.90
2459;DHT22;1241;50.920;6.936;2022-09-09T12:24:14;22.70;99.90
2459;DHT22;1241;50.920;6.936;2022-09-09T12:26:47;22.80;99.90
2459;DHT22;1241;50.920;6.936;2022-09-09T12:29:28;22.90;99.90
2459;DHT22;1241;50.920;6.936;2022-09-09T12:35:08;23.50;99.90
2459;DHT22;1241;50.920;6.936;2022-09-09T12:37:50;23.70;99.90
2459;DHT22;1241;50.920;6.936;2022-09-09T12:40:24;23.90;99.90
2459;DHT22;1241;50.920;6.936;2022-09-09T12:42:51;23.80;99.90
2459;DHT22;1241;50.920;6.936;2022-09-09T12:45:25;23.60;99.90
2459;DHT22;1241;50.920;6.936;2022-09-09T12:48:18;23.40;99.90
2459;DHT22;1241;50.920;6.936;2022-09-09T12:50:50;23.30;99.90
2459;DHT22;1241;50.920;6.936;2022-09-09T12:53:26;23.10;99.90
2459;DHT22;1241;50.920;6.936;2022-09-09T12:58:26;23.50;99.90
2459;DHT22;1241;50.920;6.936;2022-09-09T13:00:55;24.00;99.90
2459;DHT22;1241;50.920;6.936;2022-09-09T13:03:22;24.20;99.90
2459;DHT22;1241;50.920;6.936;2022-09-09T13:05:49;24.20;99.90
2459;DHT22;1241;50.920;6.936;2022-09-09T13:08:16;24.10;99.90
2459;DHT22;1241;50.920;6.936;2022-09-09T13:10:58;24.10;99.90
2459;DHT22;1241;50.920;6.936;2022-09-09T13:13:28;24.00;99.90
2459;DHT22;1241;50.920;6.936;2022-09-09T13:16:00;23.90;99.90
2459;DHT22;1241;50.920;6.936;2022-09-09T13:18:30;23.90;99.90
2459;DHT22;1241;50.920;6.936;2022-09-09T13:20:57;23.70;99.90
2459;DHT22;1241;50.920;6.936;2022-09-09T13:23:30;23.70;99.90
2459;DHT22;1241;50.920;6.936;2022-09-09T13:25:58;23.70;99.90
2459;DHT22;1241;50.920;6.936;2022-09-09T13:28:26;23.70;99.90
2459;DHT22;1241;50.920;6.936;2022-09-09T13:31:18;23.80;99.90
2459;DHT22;1241;50.920;6.936;2022-09-09T13:33:45;23.80;99.90
2459;DHT22;1241;50.920;6.936;2022-09-09T13:36:12;24.00;99.90
2459;DHT22;1241;50.920;6.936;2022-09-09T13:41:24;24.20;99.90
2459;DHT22;1241;50.920;6.936;2022-09-09T13:43:50;24.10;99.90
2459;DHT22;1241;50.920;6.936;2022-09-09T13:46:36;24.10;99.90
2459;DHT22;1241;50.920;6.936;2022-09-09T13:51:40;24.00;99.90
2459;DHT22;1241;50.920;6.936;2022-09-09T13:54:12;24.00;99.90
2459;DHT22;1241;50.920;6.936;2022-09-09T13:56:39;23.90;99.90
2459;DHT22;1241;50.920;6.936;2022-09-09T13:59:09;24.00;99.90
2459;DHT22;1241;50.920;6.936;2022-09-09T14:01:35;24.00;99.90
2459;DHT22;1241;50.920;6.936;2022-09-09T14:04:03;24.00;99.90
2459;DHT22;1241;50.920;6.936;2022-09-09T14:06:29;23.80;99.90
2459;DHT22;1241;50.920;6.936;2022-09-09T14:08:55;23.70;99.90
2459;DHT22;1241;50.920;6.936;2022-09-09T14:11:21;23.60;99.90
2459;DHT22;1241;50.920;6.936;2022-09-09T14:13:48;23.50;99.90
2459;DHT22;1241;50.920;6.936;2022-09-09T14:16:16;23.30;99.90
2459;DHT22;1241;50.920;6.936;2022-09-09T14:18:46;23.00;99.90
2459;DHT22;1241;50.920;6.936;2022-09-09T14:21:12;23.00;99.90
2459;DHT22;1241;50.920;6.936;2022-09-09T14:23:38;22.80;99.90
2459;DHT22;1241;50.920;6.936;2022-09-09T14:26:07;22.60;99.90
2459;DHT22;1241;50.920;6.936;2022-09-09T14:28:35;22.40;99.90
2459;DHT22;1241;50.920;6.936;2022-09-09T14:31:04;22.30;99.90
2459;DHT22;1241;50.920;6.936;2022-09-09T14:33:30;22.30;99.90
2459;DHT22;1241;50.920;6.936;2022-09-09T14:35:59;22.30;99.90
2459;DHT22;1241;50.920;6.936;2022-09-09T14:38:29;22.10;99.90
2459;DHT22;1241;50.920;6.936;2022-09-09T14:40:55;21.70;99.90
2459;DHT22;1241;50.920;6.936;2022-09-09T14:43:22;21.00;99.90
2459;DHT22;1241;50.920;6.936;2022-09-09T14:45:47;20.50;99.90
2459;DHT22;1241;50.920;6.936;2022-09-09T14:48:14;20.10;99.90
2459;DHT22;1241;50.920;6.936;2022-09-09T14:50:40;19.80;99.90
2459;DHT22;1241;50.920;6.936;2022-09-09T14:53:07;19.70;99.90
2459;DHT22;1241;50.920;6.936;2022-09-09T14:55:34;19.60;99.90
2459;DHT22;1241;50.920;6.936;2022-09-09T14:58:00;19.60;99.90
2459;DHT22;1241;50.920;6.936;2022-09-09T15:00:26;19.70;99.90
2459;DHT22;1241;50.920;6.936;2022-09-09T15:02:53;20.00;99.90
2459;DHT22;1241;50.920;6.936;2022-09-09T15:05:19;20.30;99.90
2459;DHT22;1241;50.920;6.936;2022-09-09T15:07:45;20.70;99.90
2459;DHT22;1241;50.920;6.936;2022-09-09T15:10:10;20.80;99.90
2459;DHT22;1241;50.920;6.936;2022-09-09T15:12:36;20.90;99.90
2459;DHT22;1241;50.920;6.936;2022-09-09T15:15:04;21.10;99.90
2459;DHT22;1241;50.920;6.936;2022-09-09T15:17:30;21.20;99.90
2459;DHT22;1241;50.920;6.936;2022-09-09T15:19:56;21.40;99.90
2459;DHT22;1241;50.920;6.936;2022-09-09T15:22:22;21.70;99.90
2459;DHT22;1241;50.920;6.936;2022-09-09T15:24:49;21.80;99.90
2459;DHT22;1241;50.920;6.936;2022-09-09T15:27:15;21.90;99.90
2459;DHT22;1241;50.920;6.936;2022-09-09T15:29:41;22.00;99.90
2459;DHT22;1241;50.920;6.936;2022-09-09T15:32:07;22.00;99.90
2459;DHT22;1241;50.920;6.936;2022-09-09T15:34:33;22.00;99.90
2459;DHT22;1241;50.920;6.936;2022-09-09T15:36:58;21.90;99.90
2459;DHT22;1241;50.920;6.936;2022-09-09T15:39:25;21.70;99.90
2459;DHT22;1241;50.920;6.936;2022-09-09T15:41:51;21.70;99.90
2459;DHT22;1241;50.920;6.936;2022-09-09T15:44:17;21.60;99.90
2459;DHT22;1241;50.920;6.936;2022-09-09T15:46:53;21.60;99.90
2459;DHT22;1241;50.920;6.936;2022-09-09T15:49:20;21.60;99.90
2459;DHT22;1241;50.920;6.936;2022-09-09T15:51:54;21.40;99.90
2459;DHT22;1241;50.920;6.936;2022-09-09T15:54:22;21.10;99.90
2459;DHT22;1241;50.920;6.936;2022-09-09T15:56:53;20.70;99.90
2459;DHT22;1241;50.920;6.936;2022-09-09T15:59:21;20.20;99.90
2459;DHT22;1241;50.920;6.936;2022-09-09T16:01:47;20.00;99.90
2459;DHT22;1241;50.920;6.936;2022-09-09T16:04:17;19.70;99.90
2459;DHT22;1241;50.920;6.936;2022-09-09T16:06:52;19.80;99.90
2459;DHT22;1241;50.920;6.936;2022-09-09T16:09:18;19.80;99.90
2459;DHT22;1241;50.920;6.936;2022-09-09T16:11:44;19.80;99.90
2459;DHT22;1241;50.920;6.936;2022-09-09T16:14:10;19.90;99.90
2459;DHT22;1241;50.920;6.936;2022-09-09T16:16:36;19.90;99.90
2459;DHT22;1241;50.920;6.936;2022-09-09T16:19:05;19.90;99.90
2459;DHT22;1241;50.920;6.936;2022-09-09T16:21:34;19.90;99.90
2459;DHT22;1241;50.920;6.936;2022-09-09T16:24:02;19.90;99.90
2459;DHT22;1241;50.920;6.936;2022-09-09T16:26:30;19.90;99.90
2459;DHT22;1241;50.920;6.936;2022-09-09T16:28:56;19.80;99.90
2459;DHT22;1241;50.920;6.936;2022-09-09T16:31:26;19.90;99.90
2459;DHT22;1241;50.920;6.936;2022-09-09T16:33:53;19.90;99.90
2459;DHT22;1241;50.920;6.936;2022-09-09T16:36:26;19.80;99.90
2459;DHT22;1241;50.920;6.936;2022-09-09T16:38:57;20.10;99.90
2459;DHT22;1241;50.920;6.936;2022-09-09T16:41:24;20.10;99.90
2459;DHT22;1241;50.920;6.936;2022-09-09T16:43:54;20.20;99.90
2459;DHT22;1241;50.920;6.936;2022-09-09T16:46:21;20.30;99.90
2459;DHT22;1241;50.920;6.936;2022-09-09T16:48:48;20.30;99.90
2459;DHT22;1241;50.920;6.936;2022-09-09T16:51:23;20.40;99.90
2459;DHT22;1241;50.920;6.936;2022-09-09T16:53:50;20.50;99.90
2459;DHT22;1241;50.920;6.936;2022-09-09T16:56:18;20.60;99.90
2459;DHT22;1241;50.920;6.936;2022-09-09T16:58:52;20.50;99.90
2459;DHT22;1241;50.920;6.936;2022-09-09T17:01:25;20.60;99.90
2459;DHT22;1241;50.920;6.936;2022-09-09T17:03:59;20.50;99.90
2459;DHT22;1241;50.920;6.936;2022-09-09T17:06:27;20.50;99.90
2459;DHT22;1241;50.920;6.936;2022-09-09T17:08:58;20.30;99.90
2459;DHT22;1241;50.920;6.936;2022-09-09T17:11:25;20.20;99.90
2459;DHT22;1241;50.920;6.936;2022-09-09T17:13:52;20.10;99.90
2459;DHT22;1241;50.920;6.936;2022-09-09T17:16:19;19.90;99.90
2459;DHT22;1241;50.920;6.936;2022-09-09T17:18:49;19.70;99.90
2459;DHT22;1241;50.920;6.936;2022-09-09T17:21:18;19.70;99.90
2459;DHT22;1241;50.920;6.936;2022-09-09T17:23:44;19.70;99.90
2459;DHT22;1241;50.920;6.936;2022-09-09T17:26:13;19.60;99.90
2459;DHT22;1241;50.920;6.936;2022-09-09T17:28:40;19.60;99.90
2459;DHT22;1241;50.920;6.936;2022-09-09T17:31:07;19.50;99.90
2459;DHT22;1241;50.920;6.936;2022-09-09T17:33:34;19.40;99.90
2459;DHT22;1241;50.920;6.936;2022-09-09T17:36:05;19.40;99.90
2459;DHT22;1241;50.920;6.936;2022-09-09T17:38:32;19.40;99.90
2459;DHT22;1241;50.920;6.936;2022-09-09T17:41:06;19.40;99.90
2459;DHT22;1241;50.920;6.936;2022-09-09T17:43:33;19.30;99.90
2459;DHT22;1241;50.920;6.936;2022-09-09T17:46:11;19.20;99.90
2459;DHT22;1241;50.920;6.936;2022-09-09T17:48:37;19.30;99.90
2459;DHT22;1241;50.920;6.936;2022-09-09T17:51:06;19.10;99.90
2459;DHT22;1241;50.920;6.936;2022-09-09T17:53:37;19.10;99.90
2459;DHT22;1241;50.920;6.936;2022-09-09T17:56:05;19.10;99.90
2459;DHT22;1241;50.920;6.936;2022-09-09T17:58:31;19.10;99.90
2459;DHT22;1241;50.920;6.936;2022-09-09T18:01:06;19.00;99.90
2459;DHT22;1241;50.920;6.936;2022-09-09T18:03:36;19.00;99.90
2459;DHT22;1241;50.920;6.936;2022-09-09T18:06:07;18.90;99.90
2459;DHT22;1241;50.920;6.936;2022-09-09T18:08:34;18.80;99.90
2459;DHT22;1241;50.920;6.936;2022-09-09T18:11:02;18.80;99.90
2459;DHT22;1241;50.920;6.936;2022-09-09T18:13:28;18.80;99.90
2459;DHT22;1241;50.920;6.936;2022-09-09T18:15:55;18.80;99.90
2459;DHT22;1241;50.920;6.936;2022-09-09T18:18:21;18.80;99.90
2459;DHT22;1241;50.920;6.936;2022-09-09T18:21:00;18.80;99.90